Time;durP1;ratioP1;P1;durP2;ratioP2;P2;SDS_P1;SDS_P2;PMS_P1;PMS_P2;Temp;Humidity;BMP_temperature;BMP_pressure;BME280_temperature;BME280_humidity;BME280_pressure;Samples;Min_cycle;Max_cycle;Signal;HPM_P1;HPM_P2
2022/04/16 00:02:00;;;;;;;3.40;3.10;;;9.60;63.50;;;;;;949149;148;27440;-75
2022/04/16 00:04:26;;;;;;;3.90;2.90;;;9.60;63.70;;;;;;949942;148;27390;-76
2022/04/16 00:06:53;;;;;;;2.90;2.70;;;9.50;63.60;;;;;;949012;148;27345;-77
2022/04/16 00:09:20;;;;;;;2.90;2.70;;;9.50;63.80;;;;;;949356;148;27332;-77
2022/04/16 00:11:46;;;;;;;2.80;2.60;;;9.50;64.20;;;;;;935072;150;27482;-76
2022/04/16 00:14:15;;;;;;;3.73;2.73;;;9.50;64.40;;;;;;952191;148;27360;-74
2022/04/16 00:16:39;;;;;;;3.03;2.83;;;9.50;64.60;;;;;;955412;147;27456;-74
2022/04/16 00:19:08;;;;;;;2.90;2.70;;;9.50;64.70;;;;;;955843;147;27344;-74
2022/04/16 00:21:35;;;;;;;3.00;2.80;;;9.60;64.80;;;;;;934547;150;27456;-74
2022/04/16 00:23:59;;;;;;;2.73;2.53;;;9.60;64.30;;;;;;952149;148;27319;-74
2022/04/16 00:26:26;;;;;;;2.93;2.63;;;9.60;64.80;;;;;;952180;148;27354;-74
2022/04/16 00:28:52;;;;;;;3.00;2.80;;;9.60;64.50;;;;;;948562;148;27333;-74
2022/04/16 00:31:19;;;;;;;2.63;2.43;;;9.60;65.00;;;;;;947994;148;27270;-74
2022/04/16 00:33:46;;;;;;;3.07;2.77;;;9.60;65.20;;;;;;945611;148;27396;-74
2022/04/16 00:36:14;;;;;;;3.07;2.80;;;9.60;65.00;;;;;;937077;149;27310;-76
2022/04/16 00:38:39;;;;;;;3.23;3.00;;;9.60;65.10;;;;;;933891;149;27362;-76
2022/04/16 00:41:06;;;;;;;4.30;3.90;;;9.70;65.20;;;;;;918030;152;27413;-76
2022/04/16 00:43:32;;;;;;;4.00;3.70;;;9.70;65.50;;;;;;932770;149;27393;-77
2022/04/16 00:45:59;;;;;;;4.00;3.70;;;9.80;65.20;;;;;;933516;149;27385;-76
2022/04/16 00:48:25;;;;;;;4.13;3.73;;;9.90;65.30;;;;;;927688;152;27339;-76
2022/04/16 00:50:52;;;;;;;4.30;4.00;;;9.90;65.40;;;;;;933874;149;27351;-76
2022/04/16 00:53:18;;;;;;;3.60;2.97;;;10.00;65.30;;;;;;934122;149;28409;-75
2022/04/16 00:55:45;;;;;;;3.23;2.90;;;10.10;65.20;;;;;;932779;150;27389;-75
2022/04/16 00:58:11;;;;;;;3.37;3.07;;;10.20;65.20;;;;;;926524;151;27354;-76
2022/04/16 01:00:38;;;;;;;2.67;2.47;;;10.30;65.10;;;;;;931837;149;27618;-75
2022/04/16 01:03:04;;;;;;;2.90;2.70;;;10.30;65.10;;;;;;934071;149;27411;-77
2022/04/16 01:05:31;;;;;;;3.23;2.80;;;10.40;65.10;;;;;;912354;153;27402;-75
2022/04/16 01:07:58;;;;;;;3.20;2.90;;;10.40;65.10;;;;;;911695;153;27995;-76
2022/04/16 01:10:27;;;;;;;3.40;3.10;;;10.50;65.10;;;;;;919240;151;27442;-75
2022/04/16 01:12:51;;;;;;;3.30;3.00;;;10.50;65.00;;;;;;934484;149;27318;-76
2022/04/16 01:15:20;;;;;;;3.43;3.13;;;10.60;64.90;;;;;;913528;152;27498;-75
2022/04/16 01:17:44;;;;;;;3.63;3.33;;;10.60;64.90;;;;;;911494;152;27373;-74
2022/04/16 01:20:11;;;;;;;3.77;3.47;;;10.60;64.80;;;;;;927008;149;27440;-75
2022/04/16 01:22:37;;;;;;;3.17;2.87;;;10.70;65.00;;;;;;926214;151;27451;-75
2022/04/16 01:25:04;;;;;;;4.47;3.93;;;10.70;64.80;;;;;;932765;149;27329;-74
2022/04/16 01:27:30;;;;;;;4.57;4.17;;;10.70;64.70;;;;;;927320;151;27720;-74
2022/04/16 01:29:59;;;;;;;4.23;3.83;;;10.80;64.80;;;;;;926971;151;27367;-74
2022/04/16 01:32:25;;;;;;;4.10;3.80;;;10.80;64.90;;;;;;932042;149;27416;-75
2022/04/16 01:34:50;;;;;;;3.37;3.17;;;10.80;64.90;;;;;;925653;150;27413;-74
2022/04/16 01:37:17;;;;;;;3.60;3.20;;;10.80;64.80;;;;;;934803;150;27302;-75
2022/04/16 01:39:43;;;;;;;3.97;3.60;;;10.80;64.90;;;;;;950951;148;27478;-74
2022/04/16 01:42:10;;;;;;;3.17;2.97;;;10.90;64.90;;;;;;949173;148;27460;-75
2022/04/16 01:44:36;;;;;;;3.60;3.30;;;10.90;64.90;;;;;;936620;150;27348;-74
2022/04/16 01:47:03;;;;;;;3.73;3.43;;;10.90;64.90;;;;;;937628;150;27351;-74
2022/04/16 01:49:30;;;;;;;3.47;3.20;;;10.90;64.90;;;;;;928358;150;27430;-74
2022/04/16 01:51:57;;;;;;;3.57;3.27;;;10.90;65.00;;;;;;950069;148;27411;-75
2022/04/16 01:54:23;;;;;;;3.87;3.57;;;11.00;65.20;;;;;;952891;147;27352;-74
2022/04/16 01:56:49;;;;;;;4.13;3.77;;;11.00;65.30;;;;;;952118;147;27339;-74
2022/04/16 01:59:16;;;;;;;3.60;3.27;;;11.00;65.40;;;;;;952518;147;27342;-74
2022/04/16 02:01:45;;;;;;;3.80;3.50;;;11.10;65.30;;;;;;952888;147;27272;-75
2022/04/16 02:04:09;;;;;;;3.03;2.83;;;11.10;65.20;;;;;;949934;148;27516;-74
2022/04/16 02:06:36;;;;;;;3.50;3.20;;;11.10;65.20;;;;;;935786;150;27458;-75
2022/04/16 02:09:03;;;;;;;3.80;3.50;;;11.10;65.20;;;;;;951219;148;27412;-74
2022/04/16 02:11:30;;;;;;;3.50;3.20;;;11.20;65.30;;;;;;951068;148;27343;-74
2022/04/16 02:13:56;;;;;;;3.47;3.17;;;11.20;65.50;;;;;;951118;148;27889;-74
2022/04/16 02:16:22;;;;;;;3.40;3.10;;;11.20;65.50;;;;;;951237;147;27344;-75
2022/04/16 02:18:49;;;;;;;4.00;3.70;;;11.20;65.30;;;;;;955350;147;27368;-74
2022/04/16 02:21:16;;;;;;;4.00;3.53;;;11.30;65.40;;;;;;934609;150;27507;-74
2022/04/16 02:23:42;;;;;;;4.77;4.33;;;11.30;65.40;;;;;;935873;150;27434;-73
2022/04/16 02:26:09;;;;;;;4.80;4.40;;;11.30;65.50;;;;;;936185;150;27364;-74
2022/04/16 02:28:35;;;;;;;5.53;4.90;;;11.40;65.50;;;;;;953206;148;27323;-74
2022/04/16 02:31:02;;;;;;;4.63;4.23;;;11.40;65.60;;;;;;952501;148;27372;-74
2022/04/16 02:33:28;;;;;;;4.67;4.17;;;11.40;65.60;;;;;;951943;148;27363;-74
2022/04/16 02:35:55;;;;;;;5.33;4.57;;;11.40;65.70;;;;;;950853;148;27461;-74
2022/04/16 02:38:21;;;;;;;4.20;3.90;;;11.40;65.70;;;;;;953651;148;27413;-74
2022/04/16 02:40:48;;;;;;;4.40;4.00;;;11.50;65.80;;;;;;952032;148;27280;-74
2022/04/16 02:43:15;;;;;;;3.70;3.40;;;11.50;65.80;;;;;;955457;147;27520;-74
2022/04/16 02:48:26;;;;;;;4.20;3.80;;;11.50;65.70;;;;;;946378;148;27343;-74
2022/04/16 02:50:53;;;;;;;4.57;3.83;;;11.50;65.70;;;;;;947133;148;27462;-74
2022/04/16 02:53:19;;;;;;;4.53;4.13;;;11.50;66.00;;;;;;946887;148;27308;-74
2022/04/16 02:55:46;;;;;;;4.70;4.30;;;11.60;65.90;;;;;;948010;148;27358;-74
2022/04/16 02:58:12;;;;;;;5.03;4.50;;;11.50;66.00;;;;;;947174;148;27348;-74
2022/04/16 03:00:39;;;;;;;4.47;4.07;;;11.60;66.10;;;;;;947906;148;27362;-74
2022/04/16 03:03:05;;;;;;;4.43;4.00;;;11.60;66.10;;;;;;946835;148;27470;-74
2022/04/16 03:05:32;;;;;;;4.50;4.10;;;11.60;66.00;;;;;;947345;148;27299;-74
2022/04/16 03:07:58;;;;;;;4.20;3.77;;;11.60;66.20;;;;;;947282;148;27335;-74
2022/04/16 03:10:25;;;;;;;4.90;3.87;;;11.70;66.10;;;;;;946732;148;27747;-74
2022/04/16 03:12:51;;;;;;;4.27;3.87;;;11.70;66.20;;;;;;946792;148;28124;-74
2022/04/16 03:18:03;;;;;;;4.40;4.00;;;11.70;66.40;;;;;;946106;148;27368;-74
2022/04/16 03:20:30;;;;;;;4.10;3.70;;;11.80;66.30;;;;;;946980;148;27376;-74
2022/04/16 03:22:56;;;;;;;3.43;3.13;;;11.80;66.40;;;;;;947895;148;27406;-74
2022/04/16 03:25:23;;;;;;;4.10;3.70;;;11.80;66.50;;;;;;947186;148;27774;-74
2022/04/16 03:27:49;;;;;;;5.90;3.70;;;11.90;66.70;;;;;;947751;148;27412;-74
2022/04/16 03:30:16;;;;;;;4.37;3.83;;;11.90;66.60;;;;;;951892;148;27487;-74
2022/04/16 03:32:42;;;;;;;3.87;3.57;;;11.90;66.50;;;;;;934558;150;27310;-74
2022/04/16 03:35:09;;;;;;;3.50;3.20;;;12.00;66.80;;;;;;933216;150;27381;-74
2022/04/16 03:37:36;;;;;;;4.10;3.63;;;12.00;66.70;;;;;;921783;151;27391;-74
2022/04/16 03:40:05;;;;;;;4.40;4.00;;;12.00;66.70;;;;;;920410;152;27477;-74
2022/04/16 03:42:32;;;;;;;4.23;3.20;;;12.10;66.80;;;;;;919735;152;27395;-74
2022/04/16 03:45:00;;;;;;;4.10;3.73;;;12.10;66.50;;;;;;919902;152;27324;-74
2022/04/16 03:47:25;;;;;;;4.20;3.77;;;12.10;66.70;;;;;;919415;152;27515;-74
2022/04/16 03:49:52;;;;;;;3.63;3.33;;;12.20;66.60;;;;;;936429;149;27370;-74
2022/04/16 03:52:18;;;;;;;3.97;3.57;;;12.20;66.50;;;;;;913613;152;27955;-74
2022/04/16 04:00:17;;;;;;;3.97;3.57;;;12.40;66.40;;;;;;930691;149;27348;-74
2022/04/16 04:02:41;;;;;;;4.43;4.03;;;12.40;66.40;;;;;;919804;152;27427;-73
2022/04/16 04:05:08;;;;;;;3.93;3.63;;;12.40;66.50;;;;;;927245;152;27289;-74
2022/04/16 04:07:34;;;;;;;3.80;3.50;;;12.50;66.50;;;;;;927224;151;27368;-74
2022/04/16 04:10:01;;;;;;;3.60;3.30;;;12.50;66.50;;;;;;918501;152;27477;-74
2022/04/16 04:12:28;;;;;;;3.60;3.30;;;12.50;66.40;;;;;;912700;152;27374;-74
2022/04/16 04:14:54;;;;;;;4.77;3.90;;;12.50;66.40;;;;;;909500;152;27360;-73
2022/04/16 04:17:21;;;;;;;3.63;3.33;;;12.50;66.30;;;;;;917775;152;27337;-73
2022/04/16 04:19:48;;;;;;;4.17;3.77;;;12.60;66.40;;;;;;935380;149;27893;-74
2022/04/16 04:22:14;;;;;;;3.53;3.23;;;12.60;66.40;;;;;;934595;150;27354;-74
2022/04/16 04:24:40;;;;;;;3.40;3.10;;;12.60;66.20;;;;;;935325;149;27306;-74
2022/04/16 04:27:07;;;;;;;3.50;3.20;;;12.60;66.20;;;;;;912223;152;27361;-74
2022/04/16 04:29:34;;;;;;;4.77;3.30;;;12.60;66.20;;;;;;918075;152;27409;-74
2022/04/16 04:32:00;;;;;;;3.43;3.13;;;12.60;66.20;;;;;;927812;151;27336;-74
2022/04/16 04:34:27;;;;;;;3.67;3.33;;;12.60;66.20;;;;;;919641;152;27386;-74
2022/04/16 04:36:53;;;;;;;3.87;3.10;;;12.70;66.30;;;;;;925847;150;27417;-74
2022/04/16 04:39:20;;;;;;;4.23;3.70;;;12.70;66.30;;;;;;951896;147;27633;-73
2022/04/16 04:41:47;;;;;;;4.27;3.87;;;12.70;66.40;;;;;;950578;148;27338;-74
2022/04/16 04:44:13;;;;;;;3.23;2.93;;;12.70;66.40;;;;;;949944;148;27397;-73
2022/04/16 04:46:40;;;;;;;3.47;3.17;;;12.70;66.20;;;;;;950853;148;27951;-74
2022/04/16 04:49:09;;;;;;;3.47;3.17;;;12.70;66.20;;;;;;937630;151;27384;-74
2022/04/16 04:51:36;;;;;;;3.53;3.23;;;12.70;66.20;;;;;;953212;148;27396;-74
2022/04/16 04:54:02;;;;;;;3.73;3.43;;;12.70;66.20;;;;;;948885;148;27406;-74
2022/04/16 04:56:29;;;;;;;3.93;3.30;;;12.70;66.20;;;;;;949113;148;27402;-74
2022/04/16 04:58:55;;;;;;;3.33;3.00;;;12.70;66.40;;;;;;950474;148;27456;-74
2022/04/16 05:01:22;;;;;;;3.87;3.57;;;12.70;66.20;;;;;;948743;148;27364;-74
2022/04/16 05:03:49;;;;;;;3.03;2.83;;;12.70;66.70;;;;;;949912;148;27375;-74
2022/04/16 05:06:15;;;;;;;4.60;3.10;;;12.70;66.20;;;;;;951433;148;27340;-74
2022/04/16 05:08:43;;;;;;;3.87;3.47;;;12.80;66.20;;;;;;952882;147;27345;-74
2022/04/16 05:11:08;;;;;;;3.60;3.30;;;12.70;66.80;;;;;;947357;148;27461;-74
2022/04/16 05:13:35;;;;;;;3.10;2.80;;;12.80;66.20;;;;;;935954;150;28155;-74
2022/04/16 05:16:01;;;;;;;4.27;3.50;;;12.80;66.00;;;;;;936184;151;27431;-74
2022/04/16 05:18:28;;;;;;;3.40;3.10;;;12.80;66.00;;;;;;953042;148;27319;-74
2022/04/16 05:20:55;;;;;;;3.80;3.50;;;12.80;66.00;;;;;;957872;147;27515;-74
2022/04/16 05:23:22;;;;;;;4.40;3.60;;;12.80;65.90;;;;;;934839;150;27728;-74
2022/04/16 05:25:48;;;;;;;3.50;3.20;;;12.80;66.00;;;;;;952540;148;27352;-73
2022/04/16 05:28:14;;;;;;;4.60;4.17;;;12.80;65.90;;;;;;949344;148;27360;-74
2022/04/16 05:30:54;;;;;;;4.07;3.67;;;12.80;65.90;;;;;;949379;148;27769;-73
2022/04/16 05:34:18;;;;;;;4.17;3.80;;;12.80;65.90;;;;;;935185;151;27694;-74
2022/04/16 05:35:43;;;;;;;4.47;4.07;;;12.80;65.90;;;;;;949955;148;27678;-74
2022/04/16 05:38:10;;;;;;;4.27;3.87;;;12.90;65.80;;;;;;936650;148;27543;-74
2022/04/16 05:40:36;;;;;;;5.00;4.30;;;12.90;65.60;;;;;;935262;149;27895;-73
2022/04/16 05:43:03;;;;;;;4.00;3.70;;;12.90;65.80;;;;;;914855;152;27408;-74
2022/04/16 05:45:30;;;;;;;4.60;4.03;;;13.00;65.60;;;;;;916021;153;27397;-73
2022/04/16 05:47:56;;;;;;;5.17;4.67;;;13.00;65.90;;;;;;934138;151;27343;-74
2022/04/16 05:50:23;;;;;;;5.20;4.00;;;13.00;65.60;;;;;;927739;151;27382;-73
2022/04/16 05:52:52;;;;;;;4.37;3.97;;;13.00;65.60;;;;;;928664;152;27454;-74
2022/04/16 05:55:16;;;;;;;4.27;3.87;;;13.00;65.40;;;;;;919569;152;27790;-74
2022/04/16 05:57:42;;;;;;;4.17;3.77;;;13.10;65.30;;;;;;930360;150;27447;-73
2022/04/16 06:00:12;;;;;;;4.40;4.00;;;13.10;65.40;;;;;;935332;149;27315;-73
2022/04/16 06:02:36;;;;;;;4.33;3.93;;;13.10;65.30;;;;;;933721;150;27376;-73
2022/04/16 06:05:02;;;;;;;4.73;4.33;;;13.20;65.20;;;;;;936551;149;27363;-74
2022/04/16 06:07:29;;;;;;;4.33;3.93;;;13.20;65.00;;;;;;936594;149;28393;-74
2022/04/16 06:09:55;;;;;;;5.20;4.70;;;13.20;65.00;;;;;;927986;149;27408;-74
2022/04/16 06:12:23;;;;;;;4.07;3.67;;;13.20;65.10;;;;;;927224;151;27324;-73
2022/04/16 06:14:52;;;;;;;4.67;4.03;;;13.30;65.00;;;;;;928297;152;27364;-74
2022/04/16 06:17:18;;;;;;;6.70;4.90;;;13.30;64.80;;;;;;935229;149;27351;-74
2022/04/16 06:19:44;;;;;;;4.70;4.30;;;13.30;64.60;;;;;;928401;152;27810;-73
2022/04/16 06:22:11;;;;;;;4.60;4.20;;;13.30;64.50;;;;;;928963;151;27409;-74
2022/04/16 06:24:41;;;;;;;4.33;3.93;;;13.30;64.40;;;;;;927265;152;28105;-73
2022/04/16 06:27:07;;;;;;;4.90;4.50;;;13.30;64.20;;;;;;927179;152;27393;-73
2022/04/16 06:29:33;;;;;;;4.33;3.87;;;13.30;64.30;;;;;;927500;152;27358;-73
2022/04/16 06:32:00;;;;;;;4.67;4.27;;;13.30;64.20;;;;;;928008;151;27378;-73
2022/04/16 06:34:27;;;;;;;4.43;4.03;;;13.30;64.20;;;;;;933070;149;27297;-73
2022/04/16 06:36:53;;;;;;;4.07;3.77;;;13.30;64.20;;;;;;913277;153;27769;-73
2022/04/16 06:39:20;;;;;;;4.70;4.30;;;13.30;64.20;;;;;;927028;152;27360;-72
2022/04/16 06:41:46;;;;;;;4.90;4.40;;;13.30;64.30;;;;;;927601;152;27496;-73
2022/04/16 06:44:13;;;;;;;4.77;4.37;;;13.30;64.30;;;;;;926696;152;27293;-73
2022/04/16 06:46:39;;;;;;;4.50;4.10;;;13.30;64.20;;;;;;932830;149;27491;-73
2022/04/16 06:49:06;;;;;;;4.37;3.97;;;13.30;64.30;;;;;;935557;149;27320;-73
2022/04/16 06:51:32;;;;;;;4.80;4.40;;;13.30;64.50;;;;;;914563;152;27388;-73
2022/04/16 06:53:59;;;;;;;4.13;3.77;;;13.30;64.30;;;;;;937209;149;27363;-73
2022/04/16 06:56:26;;;;;;;5.27;4.77;;;13.30;64.40;;;;;;933343;150;27306;-73
2022/04/16 06:58:52;;;;;;;4.00;3.60;;;13.30;64.00;;;;;;904059;153;27365;-73
2022/04/16 07:03:45;;;;;;;3.67;3.30;;;13.40;63.90;;;;;;961868;144;37615;-72
2022/04/16 07:06:11;;;;;;;4.47;4.07;;;13.40;63.80;;;;;;944598;149;27919;-75
2022/04/16 07:08:38;;;;;;;4.07;3.67;;;13.40;63.70;;;;;;943495;149;27350;-74
2022/04/16 07:11:05;;;;;;;4.33;3.90;;;13.40;63.60;;;;;;943799;149;27387;-74
2022/04/16 07:13:31;;;;;;;4.00;3.70;;;13.50;63.60;;;;;;943680;149;27290;-75
2022/04/16 07:15:58;;;;;;;3.67;3.37;;;13.50;63.60;;;;;;943596;149;27376;-74
2022/04/16 07:18:25;;;;;;;4.50;4.10;;;13.50;63.60;;;;;;943037;149;27452;-74
2022/04/16 07:20:51;;;;;;;3.73;3.43;;;13.60;63.70;;;;;;942379;149;27446;-74
2022/04/16 07:23:17;;;;;;;3.70;3.17;;;13.60;63.60;;;;;;943046;149;27358;-74
2022/04/16 07:25:44;;;;;;;3.30;3.00;;;13.70;63.60;;;;;;942771;149;27336;-74
2022/04/16 07:28:11;;;;;;;3.40;3.10;;;13.80;63.70;;;;;;942638;149;27356;-74
2022/04/16 07:30:37;;;;;;;4.17;3.67;;;13.90;63.40;;;;;;943351;149;27436;-74
2022/04/16 07:33:04;;;;;;;3.83;3.43;;;14.00;63.20;;;;;;943466;149;27475;-74
2022/04/16 07:35:31;;;;;;;3.60;3.30;;;14.10;62.80;;;;;;943720;149;27764;-74
2022/04/16 07:37:57;;;;;;;3.20;2.90;;;14.20;62.40;;;;;;943338;148;27433;-75
2022/04/16 07:40:27;;;;;;;3.47;3.17;;;14.30;62.40;;;;;;942016;148;27442;-74
2022/04/16 07:42:53;;;;;;;3.07;2.87;;;14.50;61.90;;;;;;942150;148;27471;-74
2022/04/16 07:45:21;;;;;;;3.53;3.23;;;14.60;61.70;;;;;;943267;149;27345;-74
2022/04/16 07:47:47;;;;;;;3.50;3.17;;;14.60;60.70;;;;;;941689;148;27500;-74
2022/04/16 07:50:13;;;;;;;3.77;3.30;;;14.70;61.00;;;;;;942122;149;27415;-74
2022/04/16 07:52:39;;;;;;;3.80;3.40;;;14.80;60.90;;;;;;942126;148;27347;-75
2022/04/16 07:55:06;;;;;;;3.20;2.90;;;14.90;60.40;;;;;;943071;148;27343;-75
2022/04/16 07:57:33;;;;;;;2.83;2.60;;;15.00;60.00;;;;;;941909;149;27913;-75
2022/04/16 07:59:59;;;;;;;4.90;2.80;;;15.10;60.10;;;;;;941988;149;28470;-75
2022/04/16 08:02:26;;;;;;;3.40;2.77;;;15.20;60.30;;;;;;944215;148;27450;-75
2022/04/16 08:04:52;;;;;;;3.92;2.80;;;15.40;59.90;;;;;;948213;148;27343;-75
2022/04/16 08:07:19;;;;;;;2.65;2.45;;;15.70;60.50;;;;;;947951;148;27289;-75
2022/04/16 08:09:46;;;;;;;2.60;2.40;;;15.90;58.90;;;;;;948968;148;27371;-76
2022/04/16 08:12:12;;;;;;;3.25;2.92;;;16.30;59.10;;;;;;947785;148;27416;-75
2022/04/16 08:14:39;;;;;;;3.02;2.83;;;16.60;58.50;;;;;;948074;148;27314;-75
2022/04/16 08:17:05;;;;;;;2.30;2.10;;;16.90;58.40;;;;;;947729;148;27335;-74
2022/04/16 08:19:32;;;;;;;3.10;2.42;;;17.20;57.40;;;;;;947064;148;27661;-74
2022/04/16 08:21:59;;;;;;;1.98;1.77;;;17.40;56.90;;;;;;948164;148;27414;-75
2022/04/16 08:24:39;;;;;;;2.27;1.85;;;17.50;56.50;;;;;;948209;148;27465;-74
2022/04/16 08:26:55;;;;;;;2.10;1.90;;;17.50;55.90;;;;;;946631;148;27319;-74
2022/04/16 08:29:22;;;;;;;2.05;1.85;;;17.60;55.10;;;;;;948043;148;27915;-75
2022/04/16 08:31:48;;;;;;;2.62;2.42;;;17.60;55.60;;;;;;946773;148;27301;-74
2022/04/16 08:34:14;;;;;;;2.20;2.02;;;17.60;54.50;;;;;;946511;148;27365;-74
2022/04/16 08:36:41;;;;;;;1.90;1.50;;;17.60;54.80;;;;;;946934;148;27359;-74
2022/04/16 08:39:08;;;;;;;1.90;1.77;;;17.50;54.60;;;;;;948509;148;27319;-75
2022/04/16 08:41:34;;;;;;;2.33;2.12;;;17.50;54.60;;;;;;947405;148;27373;-74
2022/04/16 08:44:01;;;;;;;1.67;1.57;;;17.40;54.40;;;;;;947147;148;27317;-74
2022/04/16 08:46:28;;;;;;;2.20;2.00;;;17.40;54.50;;;;;;947112;148;27345;-74
2022/04/16 08:48:54;;;;;;;2.05;1.95;;;17.40;54.50;;;;;;947369;148;27466;-74
2022/04/16 08:51:21;;;;;;;1.90;1.80;;;17.40;54.40;;;;;;946688;148;27364;-74
2022/04/16 08:53:47;;;;;;;2.95;2.50;;;17.40;54.40;;;;;;947214;148;27450;-74
2022/04/16 08:56:14;;;;;;;1.92;1.80;;;17.40;54.20;;;;;;947257;148;27316;-74
2022/04/16 08:58:40;;;;;;;2.20;2.00;;;17.50;54.50;;;;;;947727;148;27261;-74
2022/04/16 09:01:07;;;;;;;2.02;1.82;;;17.70;54.40;;;;;;947575;148;27377;-74
2022/04/16 09:03:34;;;;;;;1.70;1.60;;;18.20;55.70;;;;;;943413;148;27405;-74
2022/04/16 09:06:00;;;;;;;1.60;1.50;;;18.70;56.10;;;;;;935811;150;27704;-74
2022/04/16 09:08:27;;;;;;;1.90;1.80;;;19.40;56.20;;;;;;936790;150;27321;-75
2022/04/16 09:10:53;;;;;;;1.72;1.62;;;20.00;55.60;;;;;;935210;150;27329;-74
2022/04/16 09:13:20;;;;;;;1.62;1.52;;;20.50;54.10;;;;;;932646;150;27435;-74
2022/04/16 09:15:46;;;;;;;1.70;1.60;;;21.10;53.00;;;;;;937099;150;27509;-74
2022/04/16 09:18:14;;;;;;;1.55;1.50;;;21.60;52.30;;;;;;936718;150;27343;-75
2022/04/16 09:20:40;;;;;;;1.50;1.40;;;22.20;52.10;;;;;;935729;150;27320;-75
2022/04/16 09:23:18;;;;;;;1.40;1.30;;;22.70;51.50;;;;;;935935;150;27456;-74
2022/04/16 09:25:45;;;;;;;1.42;1.32;;;23.30;50.90;;;;;;935853;150;27299;-74
2022/04/16 09:28:11;;;;;;;2.90;1.82;;;23.90;48.60;;;;;;935977;150;27440;-74
2022/04/16 09:30:38;;;;;;;1.40;1.30;;;24.30;49.40;;;;;;936801;150;28503;-74
2022/04/16 09:33:06;;;;;;;1.50;1.40;;;24.70;46.60;;;;;;935572;150;27303;-75
2022/04/16 09:35:35;;;;;;;1.72;1.62;;;25.10;46.70;;;;;;937214;149;27320;-74
2022/04/16 09:38:01;;;;;;;1.55;1.40;;;25.30;45.60;;;;;;936030;150;27291;-74
2022/04/16 09:40:30;;;;;;;1.57;1.47;;;25.50;46.00;;;;;;936088;150;27341;-75
2022/04/16 09:43:01;;;;;;;2.20;1.62;;;25.70;45.70;;;;;;935876;150;27386;-74
2022/04/16 09:45:26;;;;;;;1.20;1.10;;;25.80;45.20;;;;;;935778;150;28147;-74
2022/04/16 09:47:53;;;;;;;1.57;1.47;;;25.90;44.10;;;;;;936993;150;27291;-74
2022/04/16 09:50:19;;;;;;;1.60;1.50;;;26.00;42.60;;;;;;937404;150;27305;-74
2022/04/16 09:52:49;;;;;;;1.32;1.22;;;26.00;43.40;;;;;;935764;150;27432;-74
2022/04/16 09:55:15;;;;;;;1.45;1.35;;;25.90;41.70;;;;;;936291;150;27353;-74
2022/04/16 09:57:42;;;;;;;2.80;1.57;;;25.80;42.10;;;;;;937085;150;27295;-74
2022/04/16 10:00:08;;;;;;;1.25;1.17;;;25.60;43.10;;;;;;937377;150;27906;-74
2022/04/16 10:02:35;;;;;;;1.30;1.20;;;25.30;42.00;;;;;;937178;150;27330;-74
2022/04/16 10:05:02;;;;;;;1.37;1.27;;;25.10;41.00;;;;;;936618;150;27516;-74
2022/04/16 10:07:30;;;;;;;0.95;0.95;;;24.80;41.70;;;;;;936659;150;27296;-74
2022/04/16 10:09:55;;;;;;;1.12;1.05;;;24.50;41.50;;;;;;937024;150;27531;-74
2022/04/16 10:15:09;;;;;;;1.27;1.07;;;24.00;41.50;;;;;;935582;150;27962;-74
2022/04/16 10:17:42;;;;;;;0.90;0.90;;;23.70;42.10;;;;;;936745;150;27445;-74
2022/04/16 10:20:10;;;;;;;1.40;1.00;;;23.50;42.20;;;;;;937054;150;27391;-74
2022/04/16 10:22:37;;;;;;;0.80;0.80;;;23.30;40.60;;;;;;938010;150;27359;-74
2022/04/16 10:25:03;;;;;;;1.15;1.10;;;23.00;41.20;;;;;;937213;150;27454;-74
2022/04/16 10:27:33;;;;;;;0.80;0.80;;;22.70;40.40;;;;;;937349;150;27337;-74
2022/04/16 10:30:00;;;;;;;1.30;1.20;;;22.40;40.90;;;;;;936067;150;27334;-74
2022/04/16 10:32:26;;;;;;;1.42;1.32;;;22.10;41.10;;;;;;936101;150;27395;-75
2022/04/16 10:34:52;;;;;;;1.30;1.20;;;21.70;40.70;;;;;;936822;150;27330;-74
2022/04/16 10:37:25;;;;;;;1.12;1.02;;;21.40;41.00;;;;;;934689;150;27327;-74
2022/04/16 10:39:54;;;;;;;0.85;0.85;;;21.10;41.30;;;;;;936091;150;27363;-74
2022/04/16 10:42:31;;;;;;;1.27;1.20;;;20.80;41.50;;;;;;935850;150;27453;-74
2022/04/16 10:44:56;;;;;;;3.77;2.08;;;20.50;41.30;;;;;;937174;149;27423;-74
2022/04/16 10:47:23;;;;;;;1.17;1.17;;;20.20;41.50;;;;;;934844;150;27347;-74
2022/04/16 10:49:50;;;;;;;1.00;1.00;;;20.00;41.90;;;;;;937098;150;27374;-74
2022/04/16 10:52:19;;;;;;;0.95;0.95;;;19.70;42.20;;;;;;935300;150;27403;-73
2022/04/16 10:54:47;;;;;;;1.50;1.40;;;19.50;42.60;;;;;;936771;150;27345;-73
2022/04/16 10:57:13;;;;;;;1.22;1.15;;;19.30;43.10;;;;;;936275;150;27314;-73
2022/04/16 10:59:39;;;;;;;1.25;1.15;;;19.20;43.00;;;;;;935818;150;27420;-74
2022/04/16 11:02:30;;;;;;;0.98;0.90;;;19.20;43.20;;;;;;936625;150;27387;-74
2022/04/16 11:05:02;;;;;;;1.00;1.00;;;19.00;43.20;;;;;;936400;150;27408;-74
2022/04/16 11:07:28;;;;;;;1.12;1.02;;;19.00;43.30;;;;;;936818;150;27426;-74
2022/04/16 11:09:55;;;;;;;0.95;0.95;;;18.90;43.30;;;;;;937976;150;27370;-74
2022/04/16 11:12:21;;;;;;;0.80;0.80;;;18.80;43.40;;;;;;937214;150;27291;-73
2022/04/16 11:14:48;;;;;;;0.98;0.72;;;18.80;43.70;;;;;;936711;150;27455;-74
2022/04/16 11:17:15;;;;;;;1.42;1.32;;;18.80;43.70;;;;;;937202;150;27442;-74
2022/04/16 11:19:41;;;;;;;1.57;0.90;;;18.70;42.60;;;;;;936967;150;27280;-74
2022/04/16 11:22:08;;;;;;;1.10;1.10;;;18.70;42.70;;;;;;936432;150;27383;-73
2022/04/16 11:24:34;;;;;;;1.00;0.90;;;18.60;42.40;;;;;;936510;150;27400;-73
2022/04/16 11:35:15;;;;;;;0.95;0.90;;;18.30;40.90;;;;;;937075;150;27503;-73
2022/04/16 11:37:42;;;;;;;2.05;0.98;;;18.30;40.40;;;;;;936697;149;27451;-73
2022/04/16 11:40:09;;;;;;;1.55;0.85;;;18.20;41.00;;;;;;936038;149;27294;-73
2022/04/16 11:42:35;;;;;;;0.83;0.80;;;18.10;40.60;;;;;;936097;150;27346;-73
2022/04/16 11:45:03;;;;;;;1.10;0.80;;;18.10;41.30;;;;;;936885;149;27437;-73
2022/04/16 11:47:28;;;;;;;1.00;1.00;;;18.00;40.60;;;;;;936184;149;27342;-73
2022/04/16 11:49:59;;;;;;;0.75;0.72;;;18.00;40.00;;;;;;937008;150;27318;-73
2022/04/16 11:52:27;;;;;;;0.78;0.70;;;17.90;40.50;;;;;;937576;149;27590;-73
2022/04/16 11:55:00;;;;;;;1.07;0.75;;;17.90;40.50;;;;;;937059;150;27317;-73
2022/04/16 11:57:26;;;;;;;0.75;0.70;;;17.90;40.60;;;;;;937540;149;27364;-73
2022/04/16 11:59:59;;;;;;;0.88;0.88;;;17.90;40.30;;;;;;936636;150;27275;-73
2022/04/16 12:02:34;;;;;;;0.80;0.80;;;17.90;39.60;;;;;;937267;149;27316;-73
2022/04/16 12:05:09;;;;;;;0.78;0.78;;;17.90;39.90;;;;;;937582;148;27405;-73
2022/04/16 12:07:37;;;;;;;0.55;0.55;;;17.80;40.20;;;;;;947699;148;27819;-73
2022/04/16 12:10:02;;;;;;;0.70;0.70;;;17.80;40.30;;;;;;947649;148;27307;-73
2022/04/16 12:12:29;;;;;;;0.80;0.78;;;17.80;40.90;;;;;;947374;148;27366;-73
2022/04/16 12:14:55;;;;;;;0.98;0.98;;;17.80;39.60;;;;;;948226;148;27332;-73
2022/04/16 12:17:29;;;;;;;0.60;0.60;;;17.80;39.90;;;;;;948290;148;27377;-73
2022/04/16 12:19:57;;;;;;;0.50;0.50;;;17.80;39.80;;;;;;947936;148;28563;-73
2022/04/16 12:22:23;;;;;;;1.07;0.98;;;17.80;39.50;;;;;;947859;148;27248;-74
2022/04/16 12:24:50;;;;;;;1.45;0.90;;;17.80;38.80;;;;;;948402;148;27448;-74
2022/04/16 12:27:29;;;;;;;0.80;0.80;;;17.80;39.10;;;;;;947801;148;27357;-73
2022/04/16 12:29:56;;;;;;;1.50;0.90;;;17.80;39.00;;;;;;947857;148;27334;-74
2022/04/16 12:32:26;;;;;;;0.80;0.53;;;17.80;38.50;;;;;;947410;148;27300;-75
2022/04/16 12:34:51;;;;;;;0.67;0.67;;;17.80;38.20;;;;;;947673;148;27444;-75
2022/04/16 12:37:18;;;;;;;0.40;0.40;;;17.80;37.80;;;;;;948276;148;27372;-76
2022/04/16 12:39:44;;;;;;;1.57;0.80;;;17.80;38.40;;;;;;947998;148;27352;-75
2022/04/16 12:42:11;;;;;;;0.85;0.50;;;17.80;38.40;;;;;;948081;148;27314;-73
2022/04/16 12:44:37;;;;;;;0.78;0.62;;;17.80;38.40;;;;;;947282;148;27344;-73
2022/04/16 12:47:04;;;;;;;0.88;0.70;;;17.80;38.40;;;;;;947985;148;27319;-73
2022/04/16 12:49:31;;;;;;;0.60;0.60;;;17.80;38.40;;;;;;948177;148;27353;-73
2022/04/16 12:51:58;;;;;;;3.23;0.40;;;17.80;38.60;;;;;;948068;148;27384;-72
2022/04/16 12:54:24;;;;;;;0.43;0.43;;;17.80;38.60;;;;;;948470;148;27308;-73
2022/04/16 12:56:50;;;;;;;1.07;0.85;;;17.90;38.50;;;;;;948043;148;27346;-74
2022/04/16 12:59:17;;;;;;;0.60;0.60;;;17.90;37.90;;;;;;947561;148;27298;-74
2022/04/16 13:01:44;;;;;;;0.70;0.68;;;17.90;37.90;;;;;;948906;148;27436;-73
2022/04/16 13:04:10;;;;;;;0.57;0.57;;;18.00;37.90;;;;;;947887;148;27418;-73
2022/04/16 13:06:37;;;;;;;1.40;1.02;;;18.00;37.60;;;;;;944940;148;27373;-73
2022/04/16 13:09:03;;;;;;;0.43;0.43;;;18.00;37.80;;;;;;942700;149;27317;-73
2022/04/16 13:11:30;;;;;;;1.30;1.10;;;18.00;38.00;;;;;;943393;149;27401;-73